Date,TemperatureHighF,TemperatureAvgF,TemperatureLowF,DewpointHighF,DewpointAvgF,DewpointLowF,HumidityHigh,HumidityAvg,HumidityLow,PressureMaxIn,PressureMinIn,WindSpeedMaxMPH,WindSpeedAvgMPH,GustSpeedMaxMPH,PrecipitationSumIn
2013-1-2,56,44,31,35,33,28,91,68,43,0.00,0.00,6,2,10,0.00
2013-1-3,56,38,28,38,32,26,95,81,47,0.00,0.00,6,2,10,0.00
2013-1-4,34,34,34,32,32,32,93,93,93,0.00,0.00,2,2,5,0.00
2013-1-8,58,45,41,48,42,40,96,89,69,0.00,0.00,6,2,10,0.00
2013-1-9,53,44,38,49,42,37,98,94,80,0.00,0.00,10,2,19,0.00
2013-1-23,52,49,48,48,47,45,97,93,78,0.00,0.00,7,1,17,0.00
2013-1-24,60,51,47,53,49,47,98,93,76,0.00,0.00,6,1,10,0.33
2013-1-25,67,55,47,55,51,46,98,87,61,0.00,0.00,6,2,12,0.00
2013-1-26,51,49,47,50,47,45,96,94,91,0.00,0.00,3,2,6,0.00
2013-2-1,70,56,42,46,43,39,88,64,39,0.00,0.00,6,3,10,0.00
2013-2-2,65,48,38,51,43,37,96,83,57,0.00,0.00,6,2,12,0.00
2013-2-3,62,48,37,49,44,36,98,87,63,0.00,0.00,8,2,14,0.00
2013-2-4,40,38,36,38,37,35,97,97,96,0.00,0.00,2,0,5,0.00
2013-2-7,53,43,36,40,37,34,96,82,55,0.00,0.00,10,4,17,0.00
2013-2-8,57,44,32,41,35,22,98,73,36,0.00,0.00,13,3,22,0.13
2013-2-9,61,47,34,37,28,21,81,51,29,0.00,0.00,10,4,21,0.00
2013-2-10,64,45,29,46,34,24,92,69,32,0.00,0.00,7,3,14,0.00
2013-2-11,60,44,36,37,30,23,85,60,31,0.00,0.00,5,3,10,0.00
2013-2-12,62,46,33,45,38,32,97,77,43,0.00,0.00,6,2,12,0.00
2013-2-13,67,46,32,47,39,31,97,78,44,0.00,0.00,8,2,14,0.00
2013-2-14,70,50,35,47,41,34,98,75,37,0.00,0.00,7,3,12,0.00
2013-2-15,72,53,37,46,40,35,94,67,32,0.00,0.00,6,3,12,0.00
2013-2-16,60,45,38,44,39,36,92,82,57,0.00,0.00,3,2,6,0.00
2013-2-18,53,52,51,42,41,40,68,67,66,0.00,0.00,10,8,15,0.00
2013-2-19,50,42,33,42,36,31,97,78,58,0.00,0.00,10,4,21,0.00
2013-2-20,62,44,30,36,31,28,94,68,30,0.00,0.00,8,4,15,0.49
2013-2-26,74,58,35,37,30,20,89,41,13,0.00,0.00,6,3,14,0.00
2013-2-27,68,50,32,43,37,29,88,63,31,0.00,0.00,9,3,17,0.00
2013-2-28,69,56,45,54,48,43,94,76,57,0.00,0.00,10,3,19,0.00
2013-3-1,74,55,41,54,47,40,98,78,44,0.00,0.00,5,2,10,0.00
2013-3-6,56,49,37,43,40,35,94,73,51,0.00,0.00,11,5,22,0.00
2013-3-7,56,46,35,42,37,34,97,75,50,0.00,0.00,5,2,10,0.00
2013-3-8,61,48,36,46,39,34,92,71,42,0.00,0.00,13,5,22,0.00
2013-3-9,71,52,34,46,38,29,95,64,20,0.00,0.00,11,4,21,0.00
2013-3-10,70,52,34,47,36,26,94,60,26,0.00,0.00,10,4,19,0.00
2013-3-11,41,39,38,33,33,33,82,77,71,0.00,0.00,3,2,5,0.00
2013-3-13,79,69,54,56,52,49,85,57,36,0.00,0.00,5,3,10,0.00
2013-3-14,74,56,44,56,49,42,97,78,46,0.00,0.00,10,2,17,0.00
2013-3-15,75,54,41,54,45,38,93,75,39,0.00,0.00,10,3,19,0.00
2013-3-16,73,56,40,50,44,39,97,68,39,0.00,0.00,12,4,21,0.00
2013-3-17,69,55,42,46,41,37,84,60,37,0.00,0.00,11,4,19,0.00
2013-3-18,69,53,37,47,41,31,95,67,31,0.00,0.00,11,3,21,0.00
2013-3-19,67,52,43,48,44,40,93,74,40,0.00,0.00,8,2,15,0.00
2013-3-20,58,52,47,55,50,45,96,92,84,0.00,0.00,8,3,14,0.06
2013-3-21,67,51,37,48,42,36,96,74,44,0.00,0.00,11,4,19,0.30
2013-3-22,68,53,36,41,32,14,89,53,17,0.00,0.00,11,4,19,0.00
2013-3-23,69,52,35,44,36,30,88,59,28,0.00,0.00,10,3,15,0.00
2013-3-24,72,53,37,50,41,35,94,67,33,0.00,0.00,8,3,15,0.00
2013-3-25,60,47,36,46,41,35,97,81,60,0.00,0.00,13,5,22,0.00
2013-3-26,66,53,42,50,44,40,94,73,48,0.00,0.00,12,4,19,0.00
2013-3-27,63,53,43,52,46,40,93,80,61,0.00,0.00,8,3,15,0.00
2013-3-28,68,56,48,53,49,46,93,79,53,0.00,0.00,5,2,10,0.00
2013-3-29,78,59,43,54,49,42,97,75,35,0.00,0.00,7,3,14,0.00
2013-3-30,71,59,51,56,51,48,93,77,53,0.00,0.00,8,3,15,0.00
2013-3-31,66,57,50,55,52,49,97,85,59,0.00,0.00,9,3,15,0.07
2013-4-1,66,56,47,56,52,45,97,86,63,0.00,0.00,9,3,19,0.05
2013-4-2,68,55,42,55,48,41,98,79,53,0.00,0.00,11,3,19,0.00
2013-4-3,76,56,43,54,48,42,98,78,40,0.00,0.00,7,3,14,0.00
2013-4-4,63,55,49,57,52,47,97,90,78,0.00,0.00,9,3,19,0.00
2013-4-5,64,57,50,55,51,48,97,82,63,0.00,0.00,10,4,19,0.76
2013-4-6,54,54,53,51,50,50,91,88,85,0.00,0.00,5,1,10,0.00
2013-4-10,82,74,63,59,54,48,67,50,37,0.00,0.00,12,7,19,0.00
2013-4-11,75,60,46,53,48,42,90,65,30,0.00,0.00,12,4,21,0.00
2013-4-12,76,57,41,56,45,38,96,70,28,0.00,0.00,11,3,21,0.00
2013-4-13,71,56,42,52,45,39,94,69,45,0.00,0.00,13,4,22,0.00
2013-4-14,73,54,41,45,39,30,86,61,27,0.00,0.00,16,7,30,0.00
2013-4-15,63,52,42,44,37,29,93,58,29,0.00,0.00,16,7,30,0.00
2013-4-16,70,54,37,37,28,17,79,42,14,0.00,0.00,12,5,24,0.00
2013-4-17,73,61,53,31,24,17,44,25,13,0.00,0.00,12,7,26,0.00
2013-4-18,77,61,44,42,35,26,72,41,23,0.00,0.00,10,4,19,0.00
2013-4-19,72,51,43,49,42,39,89,73,44,0.00,0.00,4,1,8,0.00
2013-4-23,86,71,49,43,32,15,72,29,10,0.00,0.00,11,6,21,0.00
2013-4-24,74,54,39,51,45,37,95,74,42,0.00,0.00,9,3,19,0.00
2013-4-25,65,55,47,49,47,44,90,75,57,0.00,0.00,13,6,22,0.00
2013-4-26,74,57,46,54,48,43,91,74,47,0.00,0.00,9,3,15,0.00
2013-4-27,82,58,44,55,48,42,94,73,31,0.00,0.00,9,2,15,0.00
2013-4-28,88,60,42,57,48,41,96,70,31,0.00,0.00,8,2,14,0.00
2013-4-29,88,70,49,55,49,45,91,54,23,0.00,0.00,11,4,19,0.00
2013-4-30,90,70,48,49,33,11,89,40,6,0.00,0.00,12,4,31,0.00
2013-5-1,90,75,54,42,22,12,51,17,9,0.00,0.00,12,6,30,0.00
2013-5-2,92,70,47,45,35,24,67,36,11,0.00,0.00,9,4,19,0.00
2013-5-3,91,72,45,44,38,31,67,33,15,0.00,0.00,9,4,19,0.00
2013-5-4,89,66,46,51,43,35,86,50,16,0.00,0.00,10,4,19,0.00
2013-5-5,67,59,52,49,48,46,86,68,49,0.00,0.00,8,4,15,0.00
2013-5-6,72,60,50,56,50,47,90,70,42,0.00,0.00,7,3,15,0.00
2013-5-7,73,62,52,53,50,43,87,67,40,0.00,0.00,10,5,21,0.00
2013-5-8,66,55,48,52,49,46,94,80,60,0.00,0.00,12,5,24,0.00
2013-5-9,69,57,46,52,49,44,95,77,54,0.00,0.00,12,6,26,0.00
2013-5-10,80,60,49,57,51,47,93,73,41,0.00,0.00,9,3,17,0.00
2013-5-11,90,64,44,58,51,43,96,68,26,0.00,0.00,7,2,15,0.00
2013-5-12,83,64,45,58,48,32,95,63,18,0.00,0.00,12,4,22,0.00
2013-5-13,84,63,44,57,50,42,95,66,39,0.00,0.00,11,3,19,0.00
2013-5-14,82,64,48,54,48,44,90,60,30,0.00,0.00,10,3,17,0.00
2013-5-15,73,59,43,49,45,41,92,63,36,0.00,0.00,13,5,22,0.00
2013-5-16,70,61,50,54,49,45,83,65,47,0.00,0.00,15,7,28,0.00
2013-5-17,68,57,44,46,44,40,91,65,40,0.00,0.00,11,4,21,0.00
2013-5-18,77,61,40,51,45,39,94,61,29,0.00,0.00,13,4,22,0.00
2013-5-19,85,66,44,47,42,30,89,48,14,0.00,0.00,12,4,21,0.00
2013-5-20,89,72,52,49,42,32,77,40,15,0.00,0.00,11,5,21,0.00
2013-5-21,73,61,49,46,42,34,85,53,24,0.00,0.00,13,6,26,0.00
2013-5-22,68,55,42,41,33,21,73,46,18,0.00,0.00,14,6,26,0.00
2013-5-23,70,56,39,42,39,34,89,57,30,0.00,0.00,11,4,21,0.00
2013-5-24,74,57,40,43,40,36,86,58,30,0.00,0.00,12,4,21,0.00
2013-5-25,73,56,40,47,43,38,93,66,36,0.00,0.00,12,5,22,0.00
2013-5-26,68,60,48,51,48,45,91,68,51,0.00,0.00,15,6,26,0.00
2013-5-27,64,56,46,56,50,43,95,80,62,0.00,0.00,8,3,19,0.00
2013-5-28,72,62,55,58,54,50,96,77,54,0.00,0.00,13,5,26,0.09
2013-5-29,74,63,51,54,51,46,82,65,47,0.00,0.00,13,6,22,0.00
2013-5-30,79,62,43,47,45,41,93,59,29,0.00,0.00,13,4,22,0.00
2013-5-31,91,68,45,52,46,42,90,52,20,0.00,0.00,11,4,19,0.00
2013-6-1,95,72,49,51,48,44,87,49,18,0.00,0.00,10,3,17,0.00
2013-6-2,88,68,50,54,49,45,86,56,25,0.00,0.00,8,3,17,0.00
2013-6-3,77,62,49,54,51,47,93,69,44,0.00,0.00,10,4,19,0.00
2013-6-4,67,57,53,51,50,49,88,79,57,0.00,0.00,11,6,21,0.00
2013-6-5,76,59,53,54,51,49,89,75,46,0.00,0.00,9,4,17,0.00
2013-6-6,87,64,51,57,52,47,90,68,35,0.00,0.00,8,3,15,0.00
2013-6-7,101,70,49,60,52,46,94,61,17,0.00,0.00,8,2,14,0.00
2013-6-8,98,72,55,60,56,52,91,61,27,0.00,0.00,9,3,21,0.00
2013-6-9,68,61,56,54,53,52,88,76,58,0.00,0.00,9,6,19,0.00
2013-6-10,65,60,55,54,52,50,93,77,63,0.00,0.00,8,4,14,0.00
2013-6-11,80,65,53,55,52,48,88,65,43,0.00,0.00,11,4,21,0.00
2013-6-12,80,64,44,48,45,41,92,56,29,0.00,0.00,12,4,24,0.10
2013-6-13,82,65,44,48,43,38,83,48,24,0.00,0.00,12,4,21,0.00
2013-6-14,88,68,48,47,42,26,84,46,13,0.00,0.00,10,4,21,0.00
2013-6-15,79,61,46,54,48,40,89,64,32,0.00,0.00,11,3,21,0.00
2013-6-16,82,64,45,51,47,43,94,58,30,0.00,0.00,13,4,22,0.00
2013-6-17,75,60,47,53,48,44,90,69,36,0.00,0.00,13,4,21,0.00
2013-6-18,70,60,47,51,49,45,95,68,45,0.00,0.00,15,8,30,0.00
2013-6-19,75,63,46,48,45,42,85,55,31,0.00,0.00,13,6,24,0.00
2013-6-20,79,64,47,47,45,42,84,54,30,0.00,0.00,12,5,24,0.00
2013-6-21,84,66,45,49,45,40,88,53,22,0.00,0.00,12,4,22,0.00
2013-6-22,88,69,47,50,46,42,85,50,21,0.00,0.00,12,4,22,0.00
2013-6-23,71,63,55,60,55,48,87,76,60,0.00,0.00,10,5,21,0.00
2013-6-24,65,60,57,59,56,53,96,85,69,0.00,0.00,8,3,15,0.00
2013-6-25,68,63,59,63,61,57,97,93,82,0.00,0.00,5,2,12,0.00
2013-6-26,82,70,62,65,62,59,97,78,49,0.00,0.00,8,3,15,0.45
2013-6-27,90,73,55,64,59,54,97,67,34,0.00,0.00,10,3,17,0.00
2013-6-28,99,79,58,64,59,56,96,58,25,0.00,0.00,12,3,21,0.00
2013-6-29,102,81,58,61,56,46,90,50,16,0.00,0.00,10,3,19,0.00
2013-6-30,98,77,57,59,56,51,88,54,21,0.00,0.00,8,3,17,0.00
2013-7-1,101,75,56,61,57,53,92,60,22,0.00,0.00,8,3,21,0.00
2013-7-2,96,75,62,62,59,55,87,60,29,0.00,0.00,7,3,21,0.00
2013-7-3,100,76,58,62,58,55,90,59,29,0.00,0.00,9,3,15,0.00
2013-7-4,101,81,63,62,55,40,78,47,16,0.00,0.00,8,4,21,0.00
2013-7-5,74,65,53,56,52,45,87,63,40,0.00,0.00,7,4,14,0.00
2013-7-6,77,64,54,56,53,52,90,72,46,0.00,0.00,7,3,14,0.00
2013-7-7,85,64,49,55,52,47,94,69,34,0.00,0.00,7,3,14,0.00
2013-7-8,86,66,49,56,51,46,92,65,33,0.00,0.00,7,3,14,0.00
2013-7-9,96,70,48,54,50,44,95,58,17,0.00,0.00,7,2,14,0.00
2013-7-10,91,68,49,55,48,30,93,56,14,0.00,0.00,9,3,15,0.00
2013-7-11,80,63,50,54,50,46,90,67,34,0.00,0.00,10,3,15,0.00
2013-7-12,83,63,50,56,51,48,92,69,33,0.00,0.00,9,3,15,0.00
2013-7-13,88,66,47,55,50,44,95,62,27,0.00,0.00,8,3,15,0.00
2013-7-14,86,64,45,56,50,42,95,65,28,0.00,0.00,8,3,15,0.00
2013-7-15,76,59,49,53,50,47,91,75,46,0.00,0.00,10,4,17,0.00
2013-7-16,70,60,54,54,52,50,87,75,58,0.00,0.00,11,6,21,0.00
2013-7-17,83,64,48,57,52,47,96,70,32,0.00,0.00,10,3,15,0.00
2013-7-18,90,65,49,56,51,46,97,68,24,0.00,0.00,8,3,15,0.00
2013-7-19,94,67,50,58,52,47,93,65,25,0.00,0.00,10,3,17,0.00
2013-7-20,90,66,52,58,54,48,90,69,32,0.00,0.00,6,3,12,0.00
2013-7-21,86,66,50,57,52,47,92,64,30,0.00,0.00,8,3,19,0.00
2013-7-22,88,68,52,57,53,48,91,63,31,0.00,0.00,10,3,17,0.00
2013-7-23,83,72,61,57,52,42,80,53,25,0.00,0.00,8,3,14,0.00
2013-7-24,91,71,53,57,52,46,91,57,24,0.00,0.00,11,3,19,0.00
2013-7-25,88,68,53,56,52,50,90,62,29,0.00,0.00,10,3,17,0.00
2013-7-26,87,66,50,56,52,47,93,66,34,0.00,0.00,9,3,17,0.00
2013-7-27,83,64,52,56,53,49,90,69,38,0.00,0.00,9,3,15,0.00
2013-7-28,82,62,52,56,52,48,92,71,37,0.00,0.00,8,4,19,0.00
2013-7-29,76,61,51,54,51,48,91,73,44,0.00,0.00,11,4,21,0.00
2013-7-30,81,63,53,56,52,50,90,71,42,0.00,0.00,10,4,17,0.00
2013-7-31,80,64,53,54,51,48,92,67,39,0.00,0.00,12,4,24,0.00
2013-8-1,79,62,46,52,49,44,95,67,35,0.00,0.00,11,3,22,0.00
2013-8-2,85,64,45,56,50,43,95,65,28,0.00,0.00,9,3,19,0.00
2013-8-3,82,64,53,56,52,48,93,69,34,0.00,0.00,8,3,15,0.00
2013-8-4,79,60,49,55,51,46,92,74,42,0.00,0.00,9,3,17,0.00
2013-8-5,82,63,51,55,51,48,90,68,30,0.00,0.00,8,4,15,0.00
2013-8-6,75,60,50,53,51,47,91,74,45,0.00,0.00,13,5,22,0.00
2013-8-7,72,62,56,56,53,51,87,74,56,0.00,0.00,10,5,19,0.00
2013-8-8,76,63,54,56,53,50,89,73,49,0.00,0.00,11,4,21,0.00
2013-8-9,76,60,52,55,52,50,91,76,48,0.00,0.00,12,5,21,0.00
2013-8-10,78,63,54,56,54,51,91,75,46,0.00,0.00,12,5,22,0.00
2013-8-11,82,64,51,56,53,49,95,71,34,0.00,0.00,11,3,19,0.00
2013-8-12,86,64,50,56,51,46,96,69,29,0.00,0.00,10,3,17,0.00
2013-8-13,91,67,48,56,50,44,96,63,21,0.00,0.00,10,3,19,0.00
2013-8-14,89,67,48,57,51,45,90,62,25,0.00,0.00,12,3,21,0.00
2013-8-15,86,70,52,62,58,50,96,69,41,0.00,0.00,13,4,22,0.00
2013-8-16,89,71,55,61,56,49,96,66,31,0.00,0.00,13,4,22,0.00
2013-8-17,88,70,52,58,55,50,93,62,34,0.00,0.00,8,3,14,0.00
2013-8-18,98,76,57,60,56,53,94,58,26,0.00,0.00,9,3,17,0.00
2013-8-19,96,74,60,61,57,54,86,61,29,0.00,0.00,7,3,17,0.00
2013-8-20,88,68,58,59,57,56,91,70,36,0.00,0.00,7,4,19,0.00
2013-8-21,84,66,53,56,54,49,89,69,35,0.00,0.00,10,4,19,0.00
2013-8-22,76,61,52,55,52,48,90,74,46,0.00,0.00,12,5,22,0.00
2013-8-23,83,66,53,56,53,50,90,68,34,0.00,0.00,9,3,15,0.00
2013-8-24,81,66,49,57,53,47,94,65,34,0.00,0.00,13,5,24,0.00
2013-8-25,81,68,58,61,58,55,90,72,49,0.00,0.00,10,4,19,0.00
2013-8-26,81,67,56,58,55,50,86,67,40,0.00,0.00,11,5,21,0.00
2013-8-27,87,66,49,56,52,47,94,66,29,0.00,0.00,13,4,22,0.00
2013-8-28,83,66,51,62,56,49,96,72,41,0.00,0.00,13,4,22,0.00
2013-8-29,84,70,59,62,59,57,94,72,44,0.00,0.00,12,4,22,0.00
2013-8-30,93,72,55,61,56,49,96,63,28,0.00,0.00,11,3,21,0.00
2013-8-31,85,67,51,56,52,40,92,62,23,0.00,0.00,12,4,22,0.00
2013-9-1,82,67,55,59,55,51,88,67,35,0.00,0.00,13,4,24,0.00
2013-9-2,82,70,61,61,58,55,87,68,44,0.00,0.00,12,4,22,0.00
2013-9-3,80,66,51,58,53,46,92,68,32,0.00,0.00,13,5,24,0.00
2013-9-4,81,65,49,57,53,48,96,70,40,0.00,0.00,12,4,22,0.00
2013-9-5,81,66,50,55,52,48,95,65,32,0.00,0.00,12,4,28,0.00
2013-9-6,95,71,48,53,48,44,91,51,19,0.00,0.00,8,3,15,0.00
2013-9-7,98,74,52,50,45,39,80,43,14,0.00,0.00,10,3,19,0.00
2013-9-8,98,71,50,56,48,43,85,51,16,0.00,0.00,8,3,15,0.00
2013-9-9,99,71,50,54,49,44,85,52,16,0.00,0.00,10,3,19,0.00
2013-9-10,83,64,51,59,55,49,93,73,43,0.00,0.00,11,4,22,0.00
2013-9-11,76,66,62,58,57,57,84,74,52,0.00,0.00,10,5,19,0.00
2013-9-12,82,66,55,60,57,52,91,75,46,0.00,0.00,11,4,22,0.00
2013-9-13,85,65,54,57,54,51,95,72,34,0.00,0.00,12,3,22,0.00
2013-9-14,80,62,50,56,53,48,95,75,45,0.00,0.00,10,3,19,0.00
2013-9-15,79,63,47,58,53,45,96,74,42,0.00,0.00,12,4,21,0.00
2013-9-16,85,65,50,58,53,49,97,70,35,0.00,0.00,11,3,21,0.00
2013-9-17,78,64,48,53,50,46,95,64,34,0.00,0.00,14,5,28,0.00
2013-9-18,85,66,48,50,45,38,89,55,19,0.00,0.00,11,4,22,0.00
2013-9-19,91,69,46,47,38,16,82,40,10,0.00,0.00,8,3,17,0.00
2013-9-20,76,60,42,59,47,33,80,63,42,0.00,0.00,11,4,21,0.00
2013-9-21,69,62,54,60,56,51,96,81,57,0.00,0.00,11,4,21,0.00
2013-9-22,74,60,47,54,51,46,97,74,43,0.00,0.00,12,4,22,0.46
2013-9-23,85,66,50,58,53,48,94,68,33,0.00,0.00,11,3,22,0.00
2013-9-24,80,64,52,54,50,44,93,65,28,0.00,0.00,14,5,24,0.00
2013-9-25,74,61,50,47,44,37,82,56,27,0.00,0.00,14,5,24,0.00
2013-9-26,77,62,44,42,37,30,81,45,20,0.00,0.00,10,4,19,0.00
2013-9-27,81,68,51,38,32,28,59,28,18,0.00,0.00,11,5,19,0.00
2013-9-28,84,62,46,53,43,35,84,55,18,0.00,0.00,10,3,21,0.00
2013-9-29,74,62,52,62,56,50,93,83,58,0.00,0.00,8,3,17,0.00
2013-9-30,74,65,52,62,60,50,95,84,62,0.00,0.00,7,3,15,0.04
2013-10-1,79,60,43,51,48,42,96,69,32,0.00,0.00,8,2,21,0.06
2013-10-2,76,61,46,50,44,37,95,59,30,0.00,0.00,10,3,21,0.00
2013-10-3,77,63,42,40,31,22,80,37,13,0.00,0.00,12,6,30,0.00
2013-10-4,85,73,65,27,23,20,24,16,10,0.00,0.00,14,8,37,0.00
2013-10-5,86,66,49,35,28,17,48,27,11,0.00,0.00,6,3,24,0.00
2013-10-6,86,64,42,37,32,30,73,36,13,0.00,0.00,5,3,12,0.00
2013-10-7,87,63,44,40,32,22,65,38,10,0.00,0.00,9,3,17,0.00
2013-10-8,80,58,42,46,40,36,88,56,21,0.00,0.00,9,3,17,0.00
2013-10-9,73,59,44,43,40,33,85,53,30,0.00,0.00,10,4,22,0.00
2013-10-10,75,59,45,49,42,36,74,55,26,0.00,0.00,7,3,14,0.00
2013-10-11,72,54,38,47,42,37,95,68,36,0.00,0.00,9,3,15,0.00
2013-10-12,73,53,37,48,42,35,95,70,33,0.00,0.00,12,3,21,0.00
2013-10-13,78,58,41,45,40,33,93,56,20,0.00,0.00,10,3,19,0.00
2013-10-14,80,58,40,42,37,35,86,53,21,0.00,0.00,7,3,14,0.00
2013-10-15,86,60,40,37,32,25,78,43,11,0.00,0.00,7,3,15,0.00
2013-10-16,83,60,40,35,32,29,69,39,15,0.00,0.00,6,3,12,0.00
2013-10-17,85,61,41,36,32,28,72,41,13,0.00,0.00,8,3,15,0.00
2013-10-18,83,67,40,43,39,34,79,39,21,0.00,0.00,5,3,10,0.00
2013-10-19,86,63,40,42,38,36,85,48,18,0.00,0.00,4,2,8,0.00
2013-10-20,83,58,38,46,39,34,88,57,21,0.00,0.00,8,2,14,0.00
2013-10-21,79,53,37,49,43,35,95,74,31,0.00,0.00,6,2,12,0.00
2013-10-22,82,54,37,50,44,36,96,72,30,0.00,0.00,5,2,10,0.00
2013-10-23,82,52,36,49,43,35,97,75,29,0.00,0.00,4,1,12,0.00
2013-10-24,68,52,40,48,45,38,95,79,48,0.00,0.00,7,2,14,0.00
2013-10-25,77,54,38,49,44,37,96,73,34,0.00,0.00,6,2,12,0.00
2013-10-26,84,58,40,48,42,38,93,63,24,0.00,0.00,6,2,12,0.00
2013-10-27,61,49,35,49,43,34,96,80,59,0.00,0.00,16,4,26,0.00
2013-10-28,66,53,38,45,42,36,94,69,37,0.00,0.00,6,3,12,0.00
2013-10-29,66,54,44,46,44,40,93,71,45,0.00,0.00,5,2,12,0.00
2013-10-30,70,51,37,47,41,36,96,72,38,0.00,0.00,7,2,14,0.00
2013-10-31,76,56,37,44,41,36,95,63,30,0.00,0.00,6,2,10,0.00
2013-11-1,79,55,40,44,40,38,92,63,24,0.00,0.00,6,2,12,0.00
2013-11-2,77,56,40,52,43,37,89,66,27,0.00,0.00,10,3,19,0.00
2013-11-3,69,52,34,41,31,22,87,52,17,0.00,0.00,5,3,12,0.00
2013-11-4,74,56,37,33,27,18,81,40,12,0.00,0.00,11,4,22,0.00
2013-11-5,76,60,44,35,31,26,61,36,20,0.00,0.00,8,3,19,0.00
2013-11-6,75,57,42,37,36,33,72,48,22,0.00,0.00,6,3,14,0.00
2013-11-7,76,58,44,40,37,33,82,50,21,0.00,0.00,10,3,17,0.00
2013-11-8,76,54,38,49,40,28,94,64,33,0.00,0.00,9,3,19,0.00
2013-11-9,76,53,37,45,39,30,88,64,29,0.00,0.00,5,2,12,0.00
2013-11-10,70,51,40,60,44,38,96,79,46,0.00,0.00,5,2,10,0.00
2013-11-11,67,52,39,48,44,37,97,76,45,0.00,0.00,4,2,8,0.00
2013-11-12,74,58,46,47,44,41,82,61,33,0.00,0.00,5,2,12,0.00
2013-11-13,82,56,40,50,44,38,93,70,28,0.00,0.00,8,2,14,0.00
2013-11-14,66,52,42,51,45,31,97,79,39,0.00,0.00,5,2,17,0.00
2013-11-15,68,53,38,40,35,31,80,54,29,0.00,0.00,9,4,17,0.00
2013-11-16,69,51,37,48,40,33,91,69,33,0.00,0.00,10,3,19,0.00
2013-11-17,64,48,36,48,42,35,97,83,53,0.00,0.00,5,2,10,0.00
2013-11-18,61,48,36,47,42,35,97,81,54,0.00,0.00,7,3,12,0.00
2013-11-19,56,53,49,55,51,45,97,94,80,0.00,0.00,4,1,8,0.00
2013-11-20,60,55,49,57,54,48,98,94,82,0.00,0.00,6,2,12,0.00
2013-11-21,64,57,49,50,29,13,97,45,16,0.00,0.00,14,7,33,0.00
2013-11-22,74,65,57,12,8,4,17,11,8,0.00,0.00,13,8,31,0.00
2013-11-23,66,54,38,34,27,10,73,39,12,0.00,0.00,6,4,15,0.00
2013-11-24,64,47,33,42,36,30,90,68,36,0.00,0.00,5,2,14,0.00
2013-11-25,65,47,34,43,39,33,97,76,42,0.00,0.00,6,2,10,0.00
2013-11-26,66,48,36,43,38,35,96,74,37,0.00,0.00,4,2,8,0.00
2013-11-27,67,50,37,42,39,35,92,70,38,0.00,0.00,7,3,14,0.00
2013-11-28,73,51,38,43,40,36,93,69,31,0.00,0.00,5,2,10,0.00
2013-11-29,70,50,38,43,39,36,92,71,33,0.00,0.00,4,2,10,0.00
2013-11-30,69,50,39,45,41,37,94,74,39,0.00,0.00,5,2,10,0.00
2013-12-1,74,52,38,46,41,36,96,72,32,0.00,0.00,5,2,10,0.00
2013-12-2,68,52,37,53,45,36,97,78,45,0.00,0.00,11,3,19,0.00
2013-12-3,58,49,35,53,33,16,90,57,27,0.00,0.00,9,4,22,0.00
2013-12-4,54,41,27,26,21,15,81,49,26,0.00,0.00,8,3,19,0.00
2013-12-5,52,34,21,28,19,12,82,59,21,0.00,0.00,5,3,10,0.00
2013-12-6,48,37,24,45,31,21,96,80,49,0.00,0.00,9,2,24,0.00
2013-12-7,48,39,26,43,28,22,94,70,36,0.00,0.00,10,4,26,0.00
2013-12-8,48,33,24,28,24,19,95,73,35,0.00,0.00,5,2,8,0.00
2013-12-9,51,33,21,26,21,18,88,65,29,0.00,0.00,6,3,12,0.00
2013-12-10,54,35,23,30,24,20,90,68,32,0.00,0.00,5,3,8,0.00
2013-12-11,57,38,26,31,28,24,92,70,36,0.00,0.00,6,3,10,0.00
2013-12-12,54,35,27,33,28,24,91,79,42,0.00,0.00,6,3,10,0.00
2013-12-13,62,44,28,37,34,27,96,70,37,0.00,0.00,4,3,8,0.00
2013-12-14,61,42,30,38,34,29,96,76,41,0.00,0.00,6,3,10,0.00
2013-12-15,63,43,30,38,34,29,96,74,37,0.00,0.00,5,3,8,0.00
2013-12-16,66,47,34,38,36,32,92,67,35,0.00,0.00,7,3,12,0.00
2013-12-17,65,49,35,40,37,32,90,66,37,0.00,0.00,5,3,10,0.00
2013-12-18,66,48,37,45,39,33,94,74,35,0.00,0.00,8,3,15,0.00
2013-12-19,63,51,38,37,26,6,83,43,15,0.00,0.00,11,5,24,0.00
2013-12-20,68,47,30,30,21,5,65,40,14,0.00,0.00,6,3,14,0.00
2013-12-21,68,48,35,47,39,30,93,73,42,0.00,0.00,4,2,12,0.00
2013-12-22,64,46,35,43,37,34,97,74,37,0.00,0.00,6,3,10,0.00
2013-12-23,66,47,35,40,37,33,93,72,39,0.00,0.00,5,3,8,0.00
2013-12-24,70,49,37,42,38,35,93,71,33,0.00,0.00,6,3,10,0.00
2013-12-25,40,37,34,36,34,32,91,87,81,0.00,0.00,4,2,6,0.00
2013-12-26,68,49,32,38,33,29,91,58,28,0.00,0.00,5,3,10,0.00
2013-12-27,60,44,33,37,32,29,85,66,33,0.00,0.00,4,3,6,0.00
2013-12-28,70,46,29,36,31,26,92,62,26,0.00,0.00,5,3,12,0.00
2013-12-29,66,48,35,32,27,19,75,47,22,0.00,0.00,6,3,14,0.00
2013-12-30,64,45,31,35,31,26,86,61,31,0.00,0.00,5,3,10,0.00
2013-12-31,65,44,34,39,34,30,87,70,37,0.00,0.00,6,2,10,0.00
2014-1-1,65,45,31,35,32,27,87,63,29,0.00,0.00,4,3,8,0.00
2014-1-2,66,47,34,38,34,30,85,63,31,0.00,0.00,5,3,10,0.00